Fisktrans — LIAB — position and weather

sailwx.info

Track history (hours):
 
Tides and Currents Weather Stations Pressure Air Temp Water Temp Dewpoint Dewpoint Depression Visibility Wind Speed Wind Dir Waves Ship Positions

Fisktrans

Last reported at 2017-Jan-24 14:13 UTC. Time now 2017-Jan-24 17:16 UTC.
Position N 69°05' E 017°24'.

Length 74 m; draft 6.5 m.

Type: Cargo ship. MMSI: 258034000.

Date/timePositionNaut miles runAvg speedWind from/ knotsBaromVisibWave heightAir tempDewpointWater temp
2017-Jan-24 14:13N 69°05' E 017°24'710.8
2017-Jan-24 13:33N 69°08' E 017°42'8 8.1
2017-Jan-24 12:33N 69°14' E 017°57'7 0.2
2017-Jan-23 03:32N 69°20' E 018°03'7 7.7
2017-Jan-23 02:33N 69°13' E 017°59'7 7.2
2017-Jan-23 01:33N 69°08' E 017°44'8 8.3
2017-Jan-23 00:33N 69°05' E 017°22'8 8.1
2017-Jan-22 23:32N 68°58' E 017°09'17 8.5
2017-Jan-22 21:33N 68°44' E 016°44'75 9.1
2017-Jan-22 13:17N 67°49' E 014°25'15 8.6
2017-Jan-22 11:32N 67°34' E 014°20'9 8.9
2017-Jan-22 10:33N 67°25' E 014°27'8 8.1
2017-Jan-22 09:33N 67°17' E 014°23'0 0.0
2017-Jan-22 08:33N 67°17' E 014°23'0 0.0
2017-Jan-22 07:33N 67°17' E 014°23'0 0.0
2017-Jan-22 06:33N 67°17' E 014°23'0 0.0
2017-Jan-22 05:33N 67°17' E 014°23'0 0.0
2017-Jan-22 04:33N 67°17' E 014°23'0 0.0
2017-Jan-22 03:33N 67°17' E 014°23'0 0.0
2017-Jan-22 02:33N 67°17' E 014°23'0 0.0
2017-Jan-22 01:33N 67°17' E 014°23'0 0.0
2017-Jan-22 00:33N 67°17' E 014°23'0 0.0
2017-Jan-21 23:33N 67°17' E 014°23'0 0.0
2017-Jan-21 22:33N 67°17' E 014°23'0 0.0
2017-Jan-21 21:33N 67°17' E 014°23'0 0.0
2017-Jan-21 20:33N 67°17' E 014°23'0 0.0
2017-Jan-21 19:33N 67°17' E 014°23'0 0.0
2017-Jan-21 18:33N 67°17' E 014°23'0 0.0
2017-Jan-21 17:33N 67°17' E 014°23'0 0.0
2017-Jan-21 16:33N 67°17' E 014°23'0 0.0
2017-Jan-21 15:33N 67°17' E 014°23'0 0.0
2017-Jan-21 14:33N 67°17' E 014°23'0 0.0
2017-Jan-21 13:33N 67°17' E 014°23'0 0.0
2017-Jan-21 12:33N 67°17' E 014°23'0 0.0
2017-Jan-21 11:33N 67°17' E 014°23'0 0.0
2017-Jan-21 10:33N 67°17' E 014°23'0 0.0
2017-Jan-21 09:33N 67°17' E 014°23'8 8.2
2017-Jan-21 08:33N 67°25' E 014°27'121 9.3
2017-Jan-20 19:33N 69°06' E 017°30'1111.0
2017-Jan-20 18:33N 69°10' E 017°58'  
2017-Jan-17 16:04N 69°20' E 018°01'5 9.9
2017-Jan-17 15:33N 69°14' E 017°58'8 8.1
2017-Jan-17 14:33N 69°08' E 017°43'3210.7
2017-Jan-17 11:33N 68°44' E 016°44'90 9.9
2017-Jan-17 02:28N 67°32' E 014°21'910.2
2017-Jan-17 01:33N 67°23' E 014°26'6 5.6
2017-Jan-17 00:33N 67°17' E 014°23'0 0.0
2017-Jan-16 23:33N 67°17' E 014°23'0 0.0
2017-Jan-16 22:33N 67°17' E 014°23'0 0.0
2017-Jan-16 21:33N 67°17' E 014°23'0 0.0
2017-Jan-16 20:33N 67°17' E 014°23'0 0.0
2017-Jan-16 19:33N 67°17' E 014°23'0 0.0
2017-Jan-16 18:33N 67°17' E 014°23'0 0.0
2017-Jan-16 17:33N 67°17' E 014°23'0 0.0
2017-Jan-16 16:33N 67°17' E 014°23'0 0.0
2017-Jan-16 15:33N 67°17' E 014°23'0 0.0
2017-Jan-16 14:33N 67°17' E 014°23'0 0.0
2017-Jan-16 13:33N 67°17' E 014°23'0 0.1
2017-Jan-16 12:33N 67°17' E 014°23'0 0.0
2017-Jan-16 11:33N 67°17' E 014°23'0 0.0
2017-Jan-16 10:33N 67°17' E 014°23'0 0.0
2017-Jan-16 09:33N 67°17' E 014°23'0 0.0
2017-Jan-16 08:33N 67°17' E 014°23'0 0.0
2017-Jan-16 07:33N 67°17' E 014°23'0 0.0
2017-Jan-16 06:33N 67°17' E 014°23'0 0.0
2017-Jan-16 05:33N 67°17' E 014°23'0 0.0
2017-Jan-16 04:33N 67°17' E 014°23'0 0.0
2017-Jan-16 03:33N 67°17' E 014°23'0 0.0
2017-Jan-16 02:33N 67°17' E 014°23'0 0.0
2017-Jan-16 01:33N 67°17' E 014°23'0 0.0
2017-Jan-16 00:33N 67°17' E 014°23'0 0.0
2017-Jan-15 23:33N 67°17' E 014°23'0 0.0
2017-Jan-15 22:33N 67°17' E 014°23'0 0.0
2017-Jan-15 21:33N 67°17' E 014°23'0 0.0
2017-Jan-15 20:33N 67°17' E 014°23'0 0.0
2017-Jan-15 19:33N 67°17' E 014°23'0 0.0
2017-Jan-15 18:33N 67°17' E 014°23'0 0.0
2017-Jan-15 17:33N 67°17' E 014°23'5 5.1
2017-Jan-15 16:33N 67°22' E 014°25'98 8.9
2017-Jan-15 05:30N 68°45' E 016°47'1310.2
2017-Jan-15 04:15N 68°56' E 017°06'1010.5
2017-Jan-15 03:18N 69°04' E 017°22'810.3
2017-Jan-15 02:33N 69°08' E 017°41'8 8.0
2017-Jan-15 01:33N 69°13' E 017°57'  
Track history (hours):
 
Tides and Currents Weather Stations Pressure Air Temp Water Temp Dewpoint Dewpoint Depression Visibility Wind Speed Wind Dir Waves Ship Positions

Fisktrans

Last reported at 2017-Jan-24 14:13 UTC. Time now 2017-Jan-24 17:16 UTC.
Position N 69°05' E 017°24'.

Length 74 m; draft 6.5 m.

Type: Cargo ship. MMSI: 258034000.

Date/timePositionNaut miles runAvg speedWind from/ knotsBaromVisibWave heightAir tempDewpointWater temp
2017-Jan-24 14:13N 69°05' E 017°24'710.8
2017-Jan-24 13:33N 69°08' E 017°42'8 8.1
2017-Jan-24 12:33N 69°14' E 017°57'7 0.2
2017-Jan-23 03:32N 69°20' E 018°03'7 7.7
2017-Jan-23 02:33N 69°13' E 017°59'7 7.2
2017-Jan-23 01:33N 69°08' E 017°44'8 8.3
2017-Jan-23 00:33N 69°05' E 017°22'8 8.1
2017-Jan-22 23:32N 68°58' E 017°09'17 8.5
2017-Jan-22 21:33N 68°44' E 016°44'75 9.1
2017-Jan-22 13:17N 67°49' E 014°25'15 8.6
2017-Jan-22 11:32N 67°34' E 014°20'9 8.9
2017-Jan-22 10:33N 67°25' E 014°27'8 8.1
2017-Jan-22 09:33N 67°17' E 014°23'0 0.0
2017-Jan-22 08:33N 67°17' E 014°23'0 0.0
2017-Jan-22 07:33N 67°17' E 014°23'0 0.0
2017-Jan-22 06:33N 67°17' E 014°23'0 0.0
2017-Jan-22 05:33N 67°17' E 014°23'0 0.0
2017-Jan-22 04:33N 67°17' E 014°23'0 0.0
2017-Jan-22 03:33N 67°17' E 014°23'0 0.0
2017-Jan-22 02:33N 67°17' E 014°23'0 0.0
2017-Jan-22 01:33N 67°17' E 014°23'0 0.0
2017-Jan-22 00:33N 67°17' E 014°23'0 0.0
2017-Jan-21 23:33N 67°17' E 014°23'0 0.0
2017-Jan-21 22:33N 67°17' E 014°23'0 0.0
2017-Jan-21 21:33N 67°17' E 014°23'0 0.0
2017-Jan-21 20:33N 67°17' E 014°23'0 0.0
2017-Jan-21 19:33N 67°17' E 014°23'0 0.0
2017-Jan-21 18:33N 67°17' E 014°23'0 0.0
2017-Jan-21 17:33N 67°17' E 014°23'0 0.0
2017-Jan-21 16:33N 67°17' E 014°23'0 0.0
2017-Jan-21 15:33N 67°17' E 014°23'0 0.0
2017-Jan-21 14:33N 67°17' E 014°23'0 0.0
2017-Jan-21 13:33N 67°17' E 014°23'0 0.0
2017-Jan-21 12:33N 67°17' E 014°23'0 0.0
2017-Jan-21 11:33N 67°17' E 014°23'0 0.0
2017-Jan-21 10:33N 67°17' E 014°23'0 0.0
2017-Jan-21 09:33N 67°17' E 014°23'8 8.2
2017-Jan-21 08:33N 67°25' E 014°27'121 9.3
2017-Jan-20 19:33N 69°06' E 017°30'1111.0
2017-Jan-20 18:33N 69°10' E 017°58'  
2017-Jan-17 16:04N 69°20' E 018°01'5 9.9
2017-Jan-17 15:33N 69°14' E 017°58'8 8.1
2017-Jan-17 14:33N 69°08' E 017°43'3210.7
2017-Jan-17 11:33N 68°44' E 016°44'90 9.9
2017-Jan-17 02:28N 67°32' E 014°21'910.2
2017-Jan-17 01:33N 67°23' E 014°26'6 5.6
2017-Jan-17 00:33N 67°17' E 014°23'0 0.0
2017-Jan-16 23:33N 67°17' E 014°23'0 0.0
2017-Jan-16 22:33N 67°17' E 014°23'0 0.0
2017-Jan-16 21:33N 67°17' E 014°23'0 0.0
2017-Jan-16 20:33N 67°17' E 014°23'0 0.0
2017-Jan-16 19:33N 67°17' E 014°23'0 0.0
2017-Jan-16 18:33N 67°17' E 014°23'0 0.0
2017-Jan-16 17:33N 67°17' E 014°23'0 0.0
2017-Jan-16 16:33N 67°17' E 014°23'0 0.0
2017-Jan-16 15:33N 67°17' E 014°23'0 0.0
2017-Jan-16 14:33N 67°17' E 014°23'0 0.0
2017-Jan-16 13:33N 67°17' E 014°23'0 0.1
2017-Jan-16 12:33N 67°17' E 014°23'0 0.0
2017-Jan-16 11:33N 67°17' E 014°23'0 0.0
2017-Jan-16 10:33N 67°17' E 014°23'0 0.0
2017-Jan-16 09:33N 67°17' E 014°23'0 0.0
2017-Jan-16 08:33N 67°17' E 014°23'0 0.0
2017-Jan-16 07:33N 67°17' E 014°23'0 0.0
2017-Jan-16 06:33N 67°17' E 014°23'0 0.0
2017-Jan-16 05:33N 67°17' E 014°23'0 0.0
2017-Jan-16 04:33N 67°17' E 014°23'0 0.0
2017-Jan-16 03:33N 67°17' E 014°23'0 0.0
2017-Jan-16 02:33N 67°17' E 014°23'0 0.0
2017-Jan-16 01:33N 67°17' E 014°23'0 0.0
2017-Jan-16 00:33N 67°17' E 014°23'0 0.0
2017-Jan-15 23:33N 67°17' E 014°23'0 0.0
2017-Jan-15 22:33N 67°17' E 014°23'0 0.0
2017-Jan-15 21:33N 67°17' E 014°23'0 0.0
2017-Jan-15 20:33N 67°17' E 014°23'0 0.0
2017-Jan-15 19:33N 67°17' E 014°23'0 0.0
2017-Jan-15 18:33N 67°17' E 014°23'0 0.0
2017-Jan-15 17:33N 67°17' E 014°23'5 5.1
2017-Jan-15 16:33N 67°22' E 014°25'98 8.9
2017-Jan-15 05:30N 68°45' E 016°47'1310.2
2017-Jan-15 04:15N 68°56' E 017°06'1010.5
2017-Jan-15 03:18N 69°04' E 017°22'810.3
2017-Jan-15 02:33N 69°08' E 017°41'8 8.0
2017-Jan-15 01:33N 69°13' E 017°57'  

Dump ship's entire track history